Time;durP1;ratioP1;P1;durP2;ratioP2;P2;SDS_P1;SDS_P2;PMS_P1;PMS_P2;Temp;Humidity;BMP_temperature;BMP_pressure;BME280_temperature;BME280_humidity;BME280_pressure;Samples;Min_cycle;Max_cycle;Signal;HPM_P1;HPM_P2
2022/08/01 00:02:24;;;;;;;4.47;4.20;;;22.30;90.90;;;;;;6156308;28;20230;-63
2022/08/01 00:05:28;;;;;;;4.70;4.40;;;22.30;91.10;;;;;;6156073;28;20730;-62
2022/08/01 00:08:31;;;;;;;4.80;4.50;;;22.30;91.10;;;;;;6156394;28;20246;-62
2022/08/01 00:11:36;;;;;;;4.80;4.50;;;22.30;91.10;;;;;;6156359;28;20231;-63
2022/08/01 00:14:39;;;;;;;5.27;4.80;;;22.30;90.90;;;;;;6156508;28;20231;-62
2022/08/01 00:17:43;;;;;;;4.97;4.57;;;22.30;91.00;;;;;;6156338;28;20231;-62
2022/08/01 00:20:46;;;;;;;5.03;4.73;;;22.20;91.20;;;;;;6156151;28;20574;-62
2022/08/01 00:23:50;;;;;;;5.30;4.90;;;22.20;91.30;;;;;;6155759;28;20246;-62
2022/08/01 00:26:54;;;;;;;4.93;4.53;;;22.10;91.50;;;;;;6156023;28;20241;-62
2022/08/01 00:29:58;;;;;;;4.83;4.50;;;22.10;91.80;;;;;;6155887;28;20210;-62
2022/08/01 00:33:16;;;;;;;5.73;5.13;;;22.10;91.90;;;;;;6155813;28;20231;-62
2022/08/01 00:36:19;;;;;;;5.20;4.80;;;22.00;92.10;;;;;;6155689;28;20231;-62
2022/08/01 00:39:22;;;;;;;4.77;4.47;;;22.00;92.20;;;;;;6155704;28;20239;-62
2022/08/01 00:42:26;;;;;;;4.83;4.50;;;22.00;92.00;;;;;;6154997;28;20239;-63
2022/08/01 00:45:30;;;;;;;5.10;4.70;;;21.90;91.90;;;;;;6155757;28;20245;-63
2022/08/01 00:48:33;;;;;;;5.20;4.70;;;21.90;92.10;;;;;;6155575;28;20245;-63
2022/08/01 00:51:36;;;;;;;4.67;4.37;;;21.90;92.30;;;;;;6155538;28;20231;-63
2022/08/01 00:54:40;;;;;;;4.80;4.37;;;21.80;92.20;;;;;;6155565;28;20244;-61
2022/08/01 00:57:45;;;;;;;5.40;5.00;;;21.70;92.30;;;;;;6154514;28;20235;-61
2022/08/01 01:01:06;;;;;;;4.37;4.07;;;21.70;92.40;;;;;;6155262;28;20628;-61
2022/08/01 01:04:10;;;;;;;4.57;4.27;;;21.60;92.50;;;;;;6155254;28;20290;-61
2022/08/01 01:07:19;;;;;;;5.10;4.70;;;21.50;92.90;;;;;;6155529;28;20734;-61
2022/08/01 01:10:26;;;;;;;4.80;4.40;;;21.40;93.10;;;;;;6155220;28;20549;-61
2022/08/01 01:13:37;;;;;;;5.10;4.60;;;21.30;93.10;;;;;;6155091;28;20242;-61
2022/08/01 01:16:54;;;;;;;5.10;4.80;;;21.30;93.10;;;;;;6154698;28;20314;-62
2022/08/01 01:20:00;;;;;;;4.70;4.40;;;21.30;93.30;;;;;;6154488;28;20558;-61
2022/08/01 01:23:15;;;;;;;4.87;4.57;;;21.30;93.40;;;;;;6154899;28;20235;-62
2022/08/01 01:26:29;;;;;;;4.33;4.03;;;21.30;93.60;;;;;;6150446;28;20246;-62
2022/08/01 01:29:38;;;;;;;4.90;4.50;;;21.20;93.70;;;;;;6154689;28;20239;-62
2022/08/01 01:33:06;;;;;;;5.30;4.90;;;21.20;94.00;;;;;;6154087;28;20907;-62
2022/08/01 01:36:13;;;;;;;5.23;4.80;;;21.20;94.20;;;;;;6154461;28;20204;-62
2022/08/01 01:39:17;;;;;;;5.20;4.50;;;21.20;94.20;;;;;;6154502;28;20563;-60
2022/08/01 01:42:23;;;;;;;5.43;4.90;;;21.20;94.30;;;;;;6154183;28;20230;-63
2022/08/01 01:45:29;;;;;;;5.50;5.20;;;21.10;94.50;;;;;;6154538;28;20231;-62
2022/08/01 01:48:34;;;;;;;5.33;4.93;;;21.00;94.90;;;;;;6154084;28;20245;-62
2022/08/01 01:51:39;;;;;;;4.90;4.60;;;21.10;95.00;;;;;;6153951;28;20573;-61
2022/08/01 01:54:47;;;;;;;5.17;4.70;;;21.10;95.10;;;;;;6154048;28;20710;-61
2022/08/01 01:57:53;;;;;;;5.67;5.27;;;21.10;95.20;;;;;;6153891;28;20249;-61
2022/08/01 02:00:59;;;;;;;4.30;4.00;;;21.10;95.20;;;;;;6154108;28;20572;-61
2022/08/01 02:04:06;;;;;;;6.03;5.37;;;21.10;95.20;;;;;;6154178;28;20239;-61
2022/08/01 02:07:11;;;;;;;4.90;4.50;;;21.10;95.30;;;;;;6153789;28;20245;-61
2022/08/01 02:10:16;;;;;;;4.87;4.47;;;21.10;95.30;;;;;;6153927;28;20227;-61
2022/08/01 02:13:21;;;;;;;5.50;5.10;;;21.00;95.60;;;;;;6153719;28;20557;-61
2022/08/01 02:16:30;;;;;;;5.13;4.77;;;21.10;95.80;;;;;;6153426;28;20697;-62
2022/08/01 02:19:34;;;;;;;5.93;5.20;;;21.10;95.90;;;;;;6153362;28;20242;-62
2022/08/01 02:22:43;;;;;;;4.90;4.50;;;21.00;96.20;;;;;;6153224;28;20588;-62
2022/08/01 02:25:51;;;;;;;6.20;5.50;;;21.00;96.40;;;;;;6153307;28;20678;-62
2022/08/01 02:29:17;;;;;;;4.50;4.20;;;21.00;96.30;;;;;;6153504;28;20231;-62
2022/08/01 02:32:37;;;;;;;4.97;4.57;;;20.90;96.30;;;;;;6149128;28;20232;-62
2022/08/01 02:35:43;;;;;;;5.00;4.60;;;20.90;96.20;;;;;;6153583;28;20241;-62
2022/08/01 02:39:10;;;;;;;4.67;4.30;;;20.90;95.90;;;;;;6152607;28;20231;-62
2022/08/01 02:42:15;;;;;;;5.27;4.93;;;21.00;96.20;;;;;;6153370;28;20249;-62
2022/08/01 02:45:19;;;;;;;5.70;5.20;;;21.00;96.30;;;;;;6154154;28;20235;-62
2022/08/01 02:48:27;;;;;;;4.97;4.57;;;20.90;96.20;;;;;;6153165;28;20234;-62
2022/08/01 02:51:31;;;;;;;4.67;4.37;;;20.90;96.40;;;;;;6152890;28;20243;-62
2022/08/01 02:54:36;;;;;;;5.73;5.27;;;21.00;96.30;;;;;;6153223;28;20235;-62
2022/08/01 02:57:41;;;;;;;5.50;5.10;;;21.00;96.00;;;;;;6153095;28;20541;-62
2022/08/01 03:00:55;;;;;;;4.90;4.50;;;21.00;95.70;;;;;;6153427;28;20235;-62
2022/08/01 03:04:00;;;;;;;5.07;4.63;;;21.00;95.60;;;;;;6152916;28;20656;-62
2022/08/01 03:07:05;;;;;;;4.97;4.67;;;21.00;95.60;;;;;;6155532;28;20227;-62
2022/08/01 03:10:10;;;;;;;5.00;4.60;;;21.00;95.70;;;;;;6158826;28;20239;-62
2022/08/01 03:13:15;;;;;;;4.97;4.03;;;21.00;95.70;;;;;;6154565;28;20235;-62
2022/08/01 03:16:19;;;;;;;5.00;4.60;;;21.00;95.80;;;;;;6153729;28;20231;-62
2022/08/01 03:19:27;;;;;;;4.97;4.57;;;21.00;96.10;;;;;;6154038;28;20234;-62
2022/08/01 03:22:31;;;;;;;4.80;4.50;;;20.90;96.20;;;;;;6158041;28;20239;-62
2022/08/01 03:25:37;;;;;;;4.50;4.10;;;20.90;96.20;;;;;;6157578;28;20705;-62
2022/08/01 03:28:42;;;;;;;4.33;4.00;;;20.80;96.30;;;;;;6157930;28;20231;-62
2022/08/01 03:31:47;;;;;;;4.60;4.20;;;20.70;96.50;;;;;;6157001;28;20702;-62
2022/08/01 03:34:52;;;;;;;4.50;4.20;;;20.60;96.60;;;;;;6152886;28;20242;-62
2022/08/01 03:37:56;;;;;;;4.27;3.87;;;20.60;96.70;;;;;;6156994;28;20857;-62
2022/08/01 03:41:22;;;;;;;4.70;4.30;;;20.50;96.60;;;;;;6156705;28;20246;-62
2022/08/01 03:44:28;;;;;;;7.10;4.50;;;20.50;96.70;;;;;;6156869;28;20237;-62
2022/08/01 03:47:34;;;;;;;5.00;4.47;;;20.50;96.90;;;;;;6156908;28;20675;-62
2022/08/01 03:50:51;;;;;;;5.10;4.60;;;20.50;97.00;;;;;;6156811;28;20310;-62
2022/08/01 03:53:56;;;;;;;5.80;5.40;;;20.50;97.00;;;;;;6156866;28;20667;-61
2022/08/01 03:57:00;;;;;;;4.67;4.23;;;20.40;97.20;;;;;;6156858;28;20207;-62
2022/08/01 04:00:08;;;;;;;5.20;4.70;;;20.40;97.30;;;;;;6156157;28;20632;-61
2022/08/01 04:03:13;;;;;;;6.10;4.90;;;20.40;97.30;;;;;;6156627;28;20231;-61
2022/08/01 04:06:17;;;;;;;4.90;4.60;;;20.40;97.70;;;;;;6156527;28;20567;-62
2022/08/01 04:09:21;;;;;;;5.53;5.03;;;20.40;97.80;;;;;;6156652;28;20227;-61
2022/08/01 04:12:24;;;;;;;4.60;4.30;;;20.50;97.90;;;;;;6156045;28;20568;-61
2022/08/01 04:15:28;;;;;;;4.93;4.47;;;20.50;97.90;;;;;;6156149;28;20258;-62
2022/08/01 04:18:31;;;;;;;6.03;4.23;;;20.50;97.90;;;;;;6156096;28;20246;-62
2022/08/01 04:21:37;;;;;;;5.17;4.77;;;20.60;97.80;;;;;;6155871;28;20524;-62
2022/08/01 04:24:42;;;;;;;6.13;4.20;;;20.50;98.00;;;;;;6156172;28;20231;-62
2022/08/01 04:27:48;;;;;;;4.10;3.70;;;20.60;97.70;;;;;;6156223;28;20695;-62
2022/08/01 04:30:57;;;;;;;4.07;3.77;;;20.60;97.60;;;;;;6155793;28;20317;-62
2022/08/01 04:34:06;;;;;;;5.03;4.63;;;20.60;97.40;;;;;;6156255;28;20258;-62
2022/08/01 04:37:12;;;;;;;4.43;4.13;;;20.60;97.60;;;;;;6155995;28;20241;-62
2022/08/01 04:40:16;;;;;;;5.87;4.90;;;20.60;97.60;;;;;;6155512;28;20566;-62
2022/08/01 04:43:20;;;;;;;4.90;4.20;;;20.60;97.40;;;;;;6155500;28;20246;-62
2022/08/01 04:46:23;;;;;;;6.13;4.80;;;20.70;97.40;;;;;;6155173;28;20588;-61
2022/08/01 04:49:27;;;;;;;4.97;4.67;;;20.80;97.50;;;;;;6155750;28;20695;-61
2022/08/01 04:52:35;;;;;;;5.10;4.60;;;20.90;97.40;;;;;;6155794;28;20231;-61
2022/08/01 04:55:38;;;;;;;6.10;5.53;;;21.00;97.10;;;;;;6155446;28;20231;-61
2022/08/01 04:58:42;;;;;;;5.30;4.90;;;21.10;96.70;;;;;;6155491;28;20235;-61
2022/08/01 05:01:49;;;;;;;5.37;5.00;;;21.10;96.70;;;;;;6154568;28;20302;-61
2022/08/01 05:04:53;;;;;;;5.63;5.03;;;21.20;96.70;;;;;;6155334;28;20312;-62
2022/08/01 05:08:00;;;;;;;5.23;4.83;;;21.20;96.60;;;;;;6154857;28;20231;-62
2022/08/01 05:11:03;;;;;;;6.27;5.77;;;21.20;96.50;;;;;;6154996;28;20346;-61
2022/08/01 05:14:06;;;;;;;7.30;5.27;;;21.20;96.50;;;;;;6155303;28;20238;-61
2022/08/01 05:17:10;;;;;;;8.43;5.90;;;21.30;96.40;;;;;;6154513;28;20227;-61
2022/08/01 05:20:14;;;;;;;5.30;4.97;;;21.60;96.00;;;;;;6154140;28;20234;-62
2022/08/01 05:23:18;;;;;;;5.90;5.40;;;21.90;95.50;;;;;;6154349;28;20235;-61
2022/08/01 05:26:42;;;;;;;6.10;5.50;;;22.30;95.10;;;;;;6154508;28;20235;-61
2022/08/01 05:29:46;;;;;;;5.40;5.00;;;22.80;94.10;;;;;;6154633;28;20242;-62
2022/08/01 05:32:49;;;;;;;6.70;5.27;;;23.00;93.70;;;;;;6154339;28;20238;-62
2022/08/01 05:35:52;;;;;;;5.80;5.10;;;23.20;93.40;;;;;;6154420;28;20575;-62
2022/08/01 05:38:57;;;;;;;5.30;4.90;;;23.10;92.60;;;;;;6154497;28;20223;-61
2022/08/01 05:42:00;;;;;;;5.93;5.33;;;23.00;92.60;;;;;;6153859;28;20235;-61
2022/08/01 05:45:04;;;;;;;5.80;5.17;;;22.90;92.60;;;;;;6154474;28;20191;-61
2022/08/01 05:48:07;;;;;;;6.10;5.70;;;22.80;92.80;;;;;;6154800;28;20227;-61
2022/08/01 05:51:10;;;;;;;6.40;5.83;;;22.70;92.90;;;;;;6154676;28;20207;-61
2022/08/01 05:54:14;;;;;;;6.00;5.47;;;22.50;92.70;;;;;;6154254;28;20247;-62
2022/08/01 05:57:18;;;;;;;6.40;5.80;;;22.40;92.40;;;;;;6154136;28;20227;-62
2022/08/01 06:00:21;;;;;;;7.67;5.00;;;22.20;92.60;;;;;;6154190;28;20227;-62
2022/08/01 06:03:24;;;;;;;5.60;5.00;;;22.10;92.80;;;;;;6153582;28;20239;-62
2022/08/01 06:06:28;;;;;;;5.80;5.40;;;22.00;93.00;;;;;;6153919;28;20545;-63
2022/08/01 06:09:32;;;;;;;6.33;5.83;;;21.90;93.20;;;;;;6154289;28;20227;-63
2022/08/01 06:12:36;;;;;;;6.00;5.60;;;21.90;93.40;;;;;;6153588;28;20568;-62
2022/08/01 06:15:39;;;;;;;7.20;6.50;;;21.90;93.50;;;;;;6153616;28;20273;-63
2022/08/01 06:18:42;;;;;;;8.40;5.73;;;21.90;93.60;;;;;;6153540;28;20294;-63
2022/08/01 06:21:46;;;;;;;5.07;4.77;;;22.00;93.80;;;;;;6153352;28;20231;-61
2022/08/01 06:24:50;;;;;;;5.93;5.43;;;22.10;93.70;;;;;;6153430;28;20257;-63
2022/08/01 06:27:53;;;;;;;6.50;5.87;;;22.10;93.70;;;;;;6153487;28;20231;-62
2022/08/01 06:30:58;;;;;;;6.47;5.87;;;22.20;93.90;;;;;;6152963;28;20230;-63
2022/08/01 06:34:01;;;;;;;6.77;6.13;;;22.30;93.60;;;;;;6153356;28;20239;-63
2022/08/01 06:37:04;;;;;;;6.10;5.57;;;22.50;93.30;;;;;;6153388;28;20227;-62
2022/08/01 06:40:12;;;;;;;6.53;6.03;;;22.60;93.20;;;;;;6147941;28;20237;-62
2022/08/01 06:43:19;;;;;;;6.60;5.80;;;22.70;92.90;;;;;;6148690;28;20231;-61
2022/08/01 06:46:22;;;;;;;6.63;6.00;;;22.70;92.90;;;;;;6153334;28;20238;-62
2022/08/01 06:49:32;;;;;;;7.63;6.03;;;22.60;92.80;;;;;;6165435;28;20227;-63
2022/08/01 06:52:35;;;;;;;6.50;5.90;;;22.40;93.00;;;;;;6176625;28;20237;-62
2022/08/01 06:55:40;;;;;;;6.60;5.97;;;22.30;93.40;;;;;;6158803;28;20238;-63
2022/08/01 06:58:43;;;;;;;6.17;5.73;;;22.30;93.30;;;;;;6157956;28;20235;-63
2022/08/01 07:01:46;;;;;;;6.23;5.70;;;22.40;93.70;;;;;;6157812;28;20239;-62
2022/08/01 07:04:49;;;;;;;7.70;6.30;;;22.40;93.70;;;;;;6157541;28;20243;-63
2022/08/01 07:07:53;;;;;;;7.07;6.47;;;22.40;93.60;;;;;;6157197;28;20245;-64
2022/08/01 07:10:59;;;;;;;6.33;5.83;;;22.50;93.40;;;;;;6158672;28;20231;-64
2022/08/01 07:14:02;;;;;;;6.90;6.00;;;22.60;93.30;;;;;;6158371;28;20274;-63
2022/08/01 07:17:06;;;;;;;6.13;5.57;;;22.80;93.50;;;;;;6158182;28;20250;-63
2022/08/01 07:20:11;;;;;;;8.10;6.23;;;22.90;92.90;;;;;;6157499;28;20605;-63
2022/08/01 07:23:18;;;;;;;8.90;5.80;;;23.00;93.00;;;;;;6156698;28;20235;-63
2022/08/01 07:26:26;;;;;;;5.67;5.17;;;23.20;92.90;;;;;;6158336;28;20354;-62
2022/08/01 07:29:29;;;;;;;7.50;5.40;;;23.30;92.60;;;;;;6158153;28;20726;-63
2022/08/01 07:32:34;;;;;;;15.63;6.57;;;23.40;92.00;;;;;;6157791;28;20231;-62
2022/08/01 07:35:38;;;;;;;5.83;5.33;;;23.60;91.70;;;;;;6157762;28;20235;-62
2022/08/01 07:38:41;;;;;;;5.93;5.43;;;23.90;91.80;;;;;;6158017;28;20557;-62
2022/08/01 07:41:45;;;;;;;6.60;6.00;;;24.40;91.60;;;;;;6156618;28;20238;-62
2022/08/01 07:45:09;;;;;;;15.80;7.07;;;27.30;88.50;;;;;;6156404;28;20230;-62
2022/08/01 07:48:13;;;;;;;9.33;7.10;;;31.30;73.00;;;;;;6160315;28;20244;-62
2022/08/01 07:51:16;;;;;;;6.25;5.03;;;34.20;60.40;;;;;;6181586;28;20230;-63
2022/08/01 07:54:19;;;;;;;8.85;5.80;;;36.30;53.10;;;;;;6167612;28;20234;-63
2022/08/01 07:57:37;;;;;;;5.97;5.47;;;37.70;47.90;;;;;;6156339;28;20230;-64
2022/08/01 08:00:40;;;;;;;5.45;5.03;;;37.10;45.20;;;;;;6156932;28;20238;-63
2022/08/01 08:03:43;;;;;;;6.10;5.60;;;36.10;46.30;;;;;;6155576;28;20544;-63
2022/08/01 08:06:47;;;;;;;9.07;6.45;;;35.70;46.10;;;;;;6155955;28;20713;-62
2022/08/01 08:09:50;;;;;;;6.20;5.30;;;34.70;47.10;;;;;;6155667;28;20235;-62
2022/08/01 08:12:55;;;;;;;5.10;4.70;;;33.50;49.20;;;;;;6155808;28;20573;-62
2022/08/01 08:15:59;;;;;;;8.40;6.07;;;32.30;51.20;;;;;;6155361;28;20694;-62
2022/08/01 08:19:02;;;;;;;5.93;5.38;;;31.10;53.70;;;;;;6155915;28;20231;-62
2022/08/01 08:22:06;;;;;;;7.45;5.80;;;30.30;55.30;;;;;;6155535;28;20238;-62
2022/08/01 08:25:11;;;;;;;7.10;6.07;;;29.80;57.10;;;;;;6155818;28;20301;-61
2022/08/01 08:28:15;;;;;;;6.67;6.10;;;29.30;58.10;;;;;;6155762;28;20383;-63
2022/08/01 08:31:19;;;;;;;10.00;6.27;;;29.10;59.20;;;;;;6155912;28;20706;-62
2022/08/01 08:34:42;;;;;;;6.80;6.20;;;28.70;60.20;;;;;;6155502;28;20249;-61
2022/08/01 08:37:45;;;;;;;6.97;6.30;;;28.50;61.50;;;;;;6155496;28;20241;-61
2022/08/01 08:40:51;;;;;;;6.43;5.83;;;28.40;62.10;;;;;;6155129;28;20292;-61
2022/08/01 08:43:57;;;;;;;6.73;5.90;;;28.10;63.70;;;;;;6154616;28;20667;-62
2022/08/01 08:47:04;;;;;;;7.73;6.77;;;28.20;64.50;;;;;;6146165;28;20578;-61
2022/08/01 08:50:11;;;;;;;6.93;6.03;;;28.60;64.50;;;;;;6154807;28;20245;-61
2022/08/01 08:53:15;;;;;;;8.00;5.80;;;29.10;64.00;;;;;;6155143;28;20227;-60
2022/08/01 08:56:22;;;;;;;6.78;6.18;;;30.30;61.60;;;;;;6154972;28;20555;-61
2022/08/01 08:59:27;;;;;;;6.80;5.75;;;31.40;58.20;;;;;;6154877;28;20230;-61
2022/08/01 09:02:31;;;;;;;4.80;4.40;;;31.90;57.40;;;;;;6154912;28;20238;-61
2022/08/01 09:05:34;;;;;;;6.25;5.28;;;32.20;56.30;;;;;;6154723;28;20235;-61
2022/08/01 09:08:41;;;;;;;5.50;4.95;;;32.50;54.90;;;;;;6154899;28;20242;-61
2022/08/01 09:11:45;;;;;;;12.98;5.88;;;32.80;53.20;;;;;;6154445;28;20249;-61
2022/08/01 09:15:09;;;;;;;8.05;5.47;;;32.80;53.00;;;;;;6154575;28;20234;-60
2022/08/01 09:18:30;;;;;;;6.85;5.60;;;32.90;53.00;;;;;;6153502;28;20251;-60
2022/08/01 09:21:33;;;;;;;5.45;5.05;;;33.10;52.50;;;;;;6154300;28;20243;-61
2022/08/01 09:24:36;;;;;;;4.82;4.50;;;33.10;51.20;;;;;;6154481;28;20234;-61
2022/08/01 09:27:40;;;;;;;5.93;5.32;;;32.80;50.60;;;;;;6154285;28;20237;-61
2022/08/01 09:30:49;;;;;;;5.40;4.90;;;32.80;51.40;;;;;;6154327;28;20273;-62
2022/08/01 09:33:55;;;;;;;5.32;4.57;;;33.10;51.00;;;;;;6154194;28;20230;-61
2022/08/01 09:37:02;;;;;;;5.72;4.65;;;33.40;50.40;;;;;;6153804;28;20601;-61
2022/08/01 09:40:06;;;;;;;7.18;4.43;;;33.30;50.80;;;;;;6153570;28;20237;-61
2022/08/01 09:43:13;;;;;;;4.78;4.32;;;33.10;51.20;;;;;;6153796;28;20564;-60
2022/08/01 09:46:18;;;;;;;4.90;4.50;;;33.00;52.10;;;;;;6153826;28;20649;-60
2022/08/01 09:49:29;;;;;;;5.18;4.65;;;32.90;52.00;;;;;;6149651;28;20235;-61
2022/08/01 09:52:55;;;;;;;4.80;4.30;;;32.80;51.60;;;;;;6153772;28;20239;-61
2022/08/01 09:56:10;;;;;;;5.38;4.90;;;32.70;50.00;;;;;;6153397;28;20242;-61
2022/08/01 09:59:14;;;;;;;4.13;3.83;;;32.50;50.00;;;;;;6153193;28;20707;-61
2022/08/01 10:02:31;;;;;;;5.28;4.45;;;32.50;49.10;;;;;;6153596;28;20245;-60
2022/08/01 10:05:36;;;;;;;4.65;4.30;;;32.50;49.80;;;;;;6153673;28;20247;-61
2022/08/01 10:08:47;;;;;;;5.07;4.57;;;32.50;49.60;;;;;;6153447;28;20283;-61
2022/08/01 10:11:52;;;;;;;4.25;3.92;;;32.40;49.40;;;;;;6153374;28;20738;-61
2022/08/01 10:14:59;;;;;;;5.47;4.50;;;32.40;49.80;;;;;;6153265;28;20211;-61
2022/08/01 10:18:08;;;;;;;4.43;4.05;;;32.50;49.30;;;;;;6152600;28;20206;-61
2022/08/01 10:21:28;;;;;;;6.15;4.78;;;32.50;49.70;;;;;;6151049;28;20601;-62
2022/08/01 10:24:55;;;;;;;4.82;3.92;;;32.40;49.40;;;;;;6151107;28;20695;-62
2022/08/01 10:28:02;;;;;;;4.68;4.20;;;32.30;49.50;;;;;;6151603;28;20234;-62
2022/08/01 10:31:06;;;;;;;3.75;3.45;;;31.90;50.00;;;;;;6151451;28;20230;-61
2022/08/01 10:34:19;;;;;;;6.40;4.03;;;31.80;50.20;;;;;;6152301;28;20731;-62
2022/08/01 10:37:25;;;;;;;4.10;3.65;;;31.70;50.30;;;;;;6153061;28;20242;-62
2022/08/01 10:40:29;;;;;;;5.13;4.20;;;31.70;50.10;;;;;;6152680;28;20671;-62
2022/08/01 10:43:33;;;;;;;4.80;4.40;;;31.70;50.30;;;;;;6153078;28;20329;-61
2022/08/01 10:46:39;;;;;;;6.00;4.05;;;31.60;50.40;;;;;;6149904;28;20671;-62
2022/08/01 10:49:56;;;;;;;6.05;4.25;;;31.50;51.00;;;;;;6151874;28;20233;-63
2022/08/01 10:53:11;;;;;;;4.97;4.57;;;31.80;50.20;;;;;;6152579;28;20587;-62
2022/08/01 10:56:40;;;;;;;4.35;4.05;;;32.00;49.70;;;;;;6152104;28;20326;-61
2022/08/01 10:59:53;;;;;;;4.03;3.63;;;32.20;49.50;;;;;;6152300;28;20339;-63
2022/08/01 11:03:04;;;;;;;3.50;3.30;;;32.50;49.50;;;;;;6152375;28;20242;-62
2022/08/01 11:06:17;;;;;;;4.35;3.85;;;32.60;48.30;;;;;;6152601;28;20222;-61
2022/08/01 11:09:32;;;;;;;5.03;4.18;;;32.60;47.50;;;;;;6152321;28;20230;-61
2022/08/01 11:12:40;;;;;;;5.13;3.38;;;32.60;47.90;;;;;;6152485;28;20554;-62
2022/08/01 11:15:45;;;;;;;5.40;3.83;;;32.70;47.00;;;;;;6152413;28;20241;-62
2022/08/01 11:18:52;;;;;;;5.15;4.45;;;32.70;46.60;;;;;;6152443;28;20565;-62
2022/08/01 11:22:03;;;;;;;5.68;4.15;;;32.60;47.40;;;;;;6152195;28;20242;-62
2022/08/01 11:25:07;;;;;;;5.03;3.75;;;32.50;47.00;;;;;;6152366;28;20253;-62
2022/08/01 11:28:20;;;;;;;6.63;3.28;;;32.30;47.10;;;;;;6152442;28;20230;-62
2022/08/01 11:31:36;;;;;;;2.65;2.45;;;32.20;47.90;;;;;;6152249;28;20309;-61
2022/08/01 11:34:54;;;;;;;2.95;2.70;;;32.10;46.90;;;;;;6152240;28;20227;-62
2022/08/01 11:38:27;;;;;;;4.97;2.70;;;32.20;47.30;;;;;;6152314;28;20231;-62
2022/08/01 11:41:33;;;;;;;2.88;2.40;;;32.30;47.50;;;;;;6154383;28;20238;-62
2022/08/01 11:44:49;;;;;;;5.28;2.38;;;32.50;45.70;;;;;;6156171;28;20687;-62
2022/08/01 11:47:54;;;;;;;3.05;2.35;;;32.30;45.20;;;;;;6156413;28;20570;-64
2022/08/01 11:50:58;;;;;;;3.28;2.97;;;32.30;45.00;;;;;;6156725;28;20242;-63
2022/08/01 11:54:05;;;;;;;5.47;3.10;;;32.40;45.20;;;;;;6156054;28;20226;-62
2022/08/01 11:57:10;;;;;;;5.90;2.65;;;32.70;44.90;;;;;;6156308;28;20199;-62
2022/08/01 12:00:16;;;;;;;5.90;2.67;;;33.00;45.70;;;;;;6156232;28;20207;-62
2022/08/01 12:03:27;;;;;;;9.75;3.10;;;33.10;44.90;;;;;;6156446;28;20234;-62
2022/08/01 12:06:35;;;;;;;2.65;2.45;;;33.20;44.30;;;;;;6156652;28;20235;-62
2022/08/01 12:09:40;;;;;;;5.07;2.90;;;33.30;44.20;;;;;;6156344;28;20325;-62
2022/08/01 12:12:45;;;;;;;1.88;1.77;;;33.40;43.90;;;;;;6156228;28;20242;-62
2022/08/01 12:15:49;;;;;;;2.67;1.42;;;33.40;42.70;;;;;;6156183;28;20685;-62
2022/08/01 12:18:58;;;;;;;5.15;2.08;;;33.40;42.10;;;;;;6156564;28;20258;-63
2022/08/01 12:22:09;;;;;;;2.38;1.92;;;33.40;42.00;;;;;;6156094;28;20242;-63
2022/08/01 12:25:15;;;;;;;3.22;2.00;;;33.20;40.50;;;;;;6156015;28;20234;-63
2022/08/01 12:28:19;;;;;;;1.70;1.60;;;33.00;40.20;;;;;;6155805;28;20239;-63
2022/08/01 12:31:32;;;;;;;2.53;1.92;;;32.90;41.00;;;;;;6155783;28;20236;-63
2022/08/01 12:34:35;;;;;;;2.20;1.92;;;32.90;41.00;;;;;;6155953;28;20236;-63
2022/08/01 12:37:39;;;;;;;1.85;1.70;;;32.80;41.20;;;;;;6155457;28;20305;-63
2022/08/01 12:40:46;;;;;;;1.95;1.73;;;32.60;41.50;;;;;;6155744;28;20237;-63
2022/08/01 12:43:53;;;;;;;5.13;1.77;;;32.60;41.70;;;;;;6155141;28;20234;-63
2022/08/01 12:46:57;;;;;;;1.90;1.80;;;32.70;41.80;;;;;;6155962;28;20227;-63
2022/08/01 12:50:00;;;;;;;5.32;2.35;;;32.70;41.60;;;;;;6156048;28;20567;-64
2022/08/01 12:53:03;;;;;;;2.85;1.33;;;32.90;41.60;;;;;;6154099;28;20336;-62
2022/08/01 12:56:11;;;;;;;11.75;2.35;;;33.10;41.10;;;;;;6155308;28;20230;-63
2022/08/01 12:59:22;;;;;;;3.85;2.17;;;33.20;40.20;;;;;;6155448;28;20314;-63
2022/08/01 13:02:33;;;;;;;4.30;1.88;;;33.10;40.80;;;;;;6146173;28;20555;-63
2022/08/01 13:05:45;;;;;;;3.28;1.85;;;33.10;40.20;;;;;;6155183;28;20239;-63
2022/08/01 13:08:48;;;;;;;1.95;1.85;;;33.20;40.30;;;;;;6154737;28;20241;-63
2022/08/01 13:11:55;;;;;;;2.47;1.98;;;33.30;40.10;;;;;;6154472;28;20238;-63
2022/08/01 13:15:18;;;;;;;2.22;1.65;;;33.30;38.90;;;;;;6154777;28;20218;-63
2022/08/01 13:18:26;;;;;;;1.73;1.63;;;33.40;39.10;;;;;;6155036;28;20238;-63
2022/08/01 13:21:32;;;;;;;1.75;1.45;;;33.50;39.20;;;;;;6154507;28;20718;-63
2022/08/01 13:25:10;;;;;;;1.92;1.83;;;33.30;39.20;;;;;;6154009;28;20246;-63
2022/08/01 13:28:20;;;;;;;2.00;1.90;;;33.20;39.80;;;;;;6154506;28;20321;-63
2022/08/01 13:31:33;;;;;;;2.90;2.08;;;33.00;39.70;;;;;;6154104;28;20242;-63
2022/08/01 13:34:37;;;;;;;2.05;1.95;;;32.90;39.80;;;;;;6154178;28;20235;-64
2022/08/01 13:37:41;;;;;;;4.03;2.72;;;32.90;39.30;;;;;;6154380;28;20234;-62
2022/08/01 13:40:45;;;;;;;3.60;1.83;;;32.90;40.70;;;;;;6154222;28;20674;-63
2022/08/01 13:43:49;;;;;;;3.75;2.50;;;33.00;39.50;;;;;;6153711;28;20234;-62
2022/08/01 13:47:02;;;;;;;2.53;1.42;;;33.10;39.20;;;;;;6153559;28;20370;-62
2022/08/01 13:50:17;;;;;;;2.45;1.80;;;33.10;39.40;;;;;;6153698;28;20235;-62
2022/08/01 13:53:21;;;;;;;2.10;1.80;;;33.00;39.30;;;;;;6154782;28;20242;-62
2022/08/01 13:56:24;;;;;;;5.82;1.75;;;33.00;40.70;;;;;;6154143;28;20237;-63
2022/08/01 13:59:29;;;;;;;1.70;1.50;;;33.10;40.20;;;;;;6155351;28;20234;-63
2022/08/01 14:02:32;;;;;;;2.40;2.20;;;32.90;40.10;;;;;;6154870;28;20347;-63
2022/08/01 14:05:35;;;;;;;2.83;1.98;;;32.90;41.00;;;;;;6144425;28;20235;-62
2022/08/01 14:08:39;;;;;;;4.68;2.15;;;33.10;41.30;;;;;;6153210;28;20256;-63
2022/08/01 14:11:48;;;;;;;1.75;1.65;;;33.00;40.60;;;;;;6153170;28;20672;-62
2022/08/01 14:14:52;;;;;;;3.55;1.63;;;33.00;40.90;;;;;;6153166;28;20234;-63
2022/08/01 14:17:55;;;;;;;2.10;1.90;;;33.10;40.70;;;;;;6153349;28;20218;-62
2022/08/01 14:20:58;;;;;;;2.38;1.70;;;33.20;40.70;;;;;;6153518;28;20199;-62
2022/08/01 14:24:09;;;;;;;2.20;1.60;;;33.10;40.70;;;;;;6152789;28;20537;-62
2022/08/01 14:27:12;;;;;;;1.50;1.40;;;33.10;40.10;;;;;;6152832;28;20234;-62
2022/08/01 14:30:17;;;;;;;2.38;1.58;;;33.20;39.00;;;;;;6152974;28;20234;-62
2022/08/01 14:33:20;;;;;;;2.50;1.60;;;33.10;39.10;;;;;;6153172;28;20236;-63
2022/08/01 14:36:23;;;;;;;2.10;1.52;;;33.10;40.10;;;;;;6153135;28;20233;-63
2022/08/01 14:39:33;;;;;;;2.13;1.63;;;33.10;39.90;;;;;;6153119;28;20234;-63
2022/08/01 14:42:37;;;;;;;1.80;1.30;;;33.00;39.20;;;;;;6152785;28;20234;-62
2022/08/01 14:45:41;;;;;;;2.10;1.90;;;32.70;40.00;;;;;;6152759;28;20234;-62
2022/08/01 14:48:45;;;;;;;1.58;1.45;;;32.70;39.90;;;;;;6152541;28;20705;-63
2022/08/01 14:51:48;;;;;;;1.65;1.55;;;32.70;39.90;;;;;;6153149;28;20238;-63
2022/08/01 14:54:51;;;;;;;2.13;1.95;;;32.60;40.80;;;;;;6153882;28;20226;-63
2022/08/01 14:57:55;;;;;;;2.85;1.77;;;32.50;40.70;;;;;;6152786;28;20248;-63
2022/08/01 15:01:00;;;;;;;2.65;2.10;;;32.40;42.00;;;;;;6153046;28;20234;-63
2022/08/01 15:04:03;;;;;;;2.90;2.17;;;32.40;42.20;;;;;;6152745;28;20665;-62
2022/08/01 15:07:12;;;;;;;1.77;1.67;;;32.30;42.60;;;;;;6143735;28;20245;-63
2022/08/01 15:10:15;;;;;;;4.20;2.08;;;32.10;42.70;;;;;;6152211;28;20241;-62
2022/08/01 15:13:19;;;;;;;2.05;1.75;;;32.00;44.20;;;;;;6152697;28;20713;-63
2022/08/01 15:16:24;;;;;;;3.22;2.25;;;32.00;45.00;;;;;;6154563;28;20759;-63
2022/08/01 15:19:27;;;;;;;3.92;2.70;;;31.90;45.70;;;;;;6157244;28;20249;-63
2022/08/01 15:22:31;;;;;;;3.55;2.25;;;31.70;46.90;;;;;;6156920;28;20579;-64
2022/08/01 15:25:34;;;;;;;3.85;2.78;;;31.60;47.60;;;;;;6157141;28;20238;-62
2022/08/01 15:28:44;;;;;;;2.78;2.58;;;31.20;48.30;;;;;;6156811;28;20278;-63
2022/08/01 15:31:49;;;;;;;2.50;2.30;;;30.80;49.30;;;;;;6156605;28;20579;-63
2022/08/01 15:34:52;;;;;;;3.40;2.70;;;30.40;50.20;;;;;;6157162;28;20241;-64
2022/08/01 15:37:57;;;;;;;3.13;2.80;;;29.90;51.80;;;;;;6156824;28;20309;-63
2022/08/01 15:41:00;;;;;;;4.20;3.20;;;29.90;52.40;;;;;;6157494;28;20230;-63
2022/08/01 15:44:03;;;;;;;3.47;3.15;;;30.00;52.70;;;;;;6158262;28;20235;-63
2022/08/01 15:47:09;;;;;;;3.40;3.10;;;29.70;53.00;;;;;;6158800;28;20536;-63
2022/08/01 15:50:12;;;;;;;4.18;2.80;;;29.80;53.50;;;;;;6159625;28;20226;-63
2022/08/01 15:53:15;;;;;;;3.30;3.00;;;29.80;53.10;;;;;;6156985;28;20242;-63
2022/08/01 15:56:19;;;;;;;3.57;2.70;;;29.50;53.20;;;;;;6164684;28;20226;-62
2022/08/01 15:59:22;;;;;;;3.17;2.87;;;29.30;53.20;;;;;;6167433;28;20565;-62
2022/08/01 16:02:27;;;;;;;3.37;3.07;;;29.40;53.90;;;;;;6168175;28;20573;-63
2022/08/01 16:05:30;;;;;;;4.67;3.87;;;29.50;54.60;;;;;;6174002;28;20608;-62
2022/08/01 16:08:33;;;;;;;3.47;2.97;;;29.60;54.00;;;;;;6169192;28;20316;-62
2022/08/01 16:11:36;;;;;;;5.17;3.40;;;29.70;54.00;;;;;;6168707;28;20236;-64